Time;durP1;ratioP1;P1;durP2;ratioP2;P2;SDS_P1;SDS_P2;PMS_P1;PMS_P2;Temp;Humidity;BMP_temperature;BMP_pressure;BME280_temperature;BME280_humidity;BME280_pressure;Samples;Min_cycle;Max_cycle;Signal;HPM_P1;HPM_P2
2022/11/12 00:02:15;;;;;;;;;;;;;;;;;;5029260;28;20395;-91
2022/11/12 00:04:40;;;;;;;;;;;;;;;;;;5027301;28;20374;-89
2022/11/12 00:07:05;;;;;;;;;;;;;;;;;;5029157;28;19927;-89
2022/11/12 00:09:31;;;;;;;;;;;;;;;;;;5026878;28;19926;-89
2022/11/12 00:11:56;;;;;;;;;;;;;;;;;;5001027;28;19952;-88
2022/11/12 00:14:22;;;;;;;;;;;;;;;;;;5021192;28;19964;-89
2022/11/12 00:16:48;;;;;;;;;;;;;;;;;;5014389;28;19928;-89
2022/11/12 00:19:16;;;;;;;;;;;;;;;;;;5014680;28;19921;-91
2022/11/12 00:21:42;;;;;;;;;;;;;;;;;;5029247;28;19921;-87
2022/11/12 00:24:07;;;;;;;;;;;;;;;;;;5026648;28;19925;-90
2022/11/12 00:26:32;;;;;;;;;;;;;;;;;;5028604;28;19979;-88
2022/11/12 00:28:58;;;;;;;;;;;;;;;;;;5028816;28;20403;-90
2022/11/12 00:31:23;;;;;;;;;;;;;;;;;;5016741;28;19921;-90
2022/11/12 00:33:49;;;;;;;;;;;;;;;;;;5044057;28;19917;-90
2022/11/12 00:36:14;;;;;;;;;;;;;;;;;;5013756;28;19917;-90
2022/11/12 00:38:39;;;;;;;;;;;;;;;;;;5031421;28;20475;-90
2022/11/12 00:41:05;;;;;;;;;;;;;;;;;;5018610;28;19921;-89
2022/11/12 00:43:30;;;;;;;;;;;;;;;;;;5019984;28;19972;-89
2022/11/12 00:45:56;;;;;;;;;;;;;;;;;;5021065;28;19928;-87
2022/11/12 00:48:21;;;;;;;;;;;;;;;;;;5019483;28;19960;-88
2022/11/12 00:50:46;;;;;;;;;;;;;;;;;;5020177;28;20449;-88
2022/11/12 00:53:12;;;;;;;;;;;;;;;;;;5015021;28;19922;-89
2022/11/12 00:55:37;;;;;;;;;;;;;;;;;;5017504;28;20035;-90
2022/11/12 00:58:03;;;;;;;;;;;;;;;;;;5014202;28;20408;-88
2022/11/12 01:00:28;;;;;;;;;;;;;;;;;;5023386;28;19974;-89
2022/11/12 01:02:54;;;;;;;;;;;;;;;;;;5026485;28;19923;-91
2022/11/12 01:05:20;;;;;;;;;;;;;;;;;;5019591;28;19970;-90
2022/11/12 01:07:45;;;;;;;;;;;;;;;;;;5010381;28;19964;-88
2022/11/12 01:10:12;;;;;;;;;;;;;;;;;;5019694;28;19917;-88
2022/11/12 01:12:38;;;;;;;;;;;;;;;;;;5002500;28;20373;-89
2022/11/12 01:15:04;;;;;;;;;;;;;;;;;;4999932;28;19921;-88
2022/11/12 01:17:30;;;;;;;;;;;;;;;;;;5050036;28;20432;-88
2022/11/12 01:19:55;;;;;;;;;;;;;;;;;;5051525;28;19921;-89
2022/11/12 01:22:21;;;;;;;;;;;;;;;;;;5050885;28;19916;-89
2022/11/12 01:24:46;;;;;;;;;;;;;;;;;;5050783;28;19920;-89
2022/11/12 01:27:11;;;;;;;;;;;;;;;;;;5050825;28;19912;-90
2022/11/12 01:29:37;;;;;;;;;;;;;;;;;;5051246;28;20288;-87
2022/11/12 01:32:02;;;;;;;;;;;;;;;;;;5050982;28;19912;-89
2022/11/12 01:34:28;;;;;;;;;;;;;;;;;;5049302;28;19924;-88
2022/11/12 01:36:53;;;;;;;;;;;;;;;;;;5051155;28;19917;-89
2022/11/12 01:39:18;;;;;;;;;;;;;;;;;;5046889;28;20278;-89
2022/11/12 01:41:44;;;;;;;;;;;;;;;;;;5031236;28;19976;-88
2022/11/12 01:44:18;;;;;;;;;;;;;;;;;;5031016;28;19921;-89
2022/11/12 01:47:02;;;;;;;;;;;;;;;;;;5033455;28;19920;-88
2022/11/12 01:49:46;;;;;;;;;;;;;;;;;;5019511;28;19927;-89
2022/11/12 01:52:21;;;;;;;;;;;;;;;;;;5048206;28;20327;-89
2022/11/12 01:54:48;;;;;;;;;;;;;;;;;;5053033;28;19920;-88
2022/11/12 01:57:16;;;;;;;;;;;;;;;;;;5054115;28;19917;-88
2022/11/12 01:59:44;;;;;;;;;;;;;;;;;;5054771;28;20450;-90
2022/11/12 02:02:09;;;;;;;;;;;;;;;;;;5036738;28;20261;-89
2022/11/12 02:04:35;;;;;;;;;;;;;;;;;;5053503;28;19921;-88
2022/11/12 02:07:01;;;;;;;;;;;;;;;;;;5054467;28;19951;-89
2022/11/12 02:09:28;;;;;;;;;;;;;;;;;;5054229;28;20196;-88
2022/11/12 02:11:53;;;;;;;;;;;;;;;;;;5054072;28;20000;-90
2022/11/12 02:14:19;;;;;;;;;;;;;;;;;;5054172;28;20390;-87
2022/11/12 02:16:45;;;;;;;;;;;;;;;;;;5054246;28;19921;-88
2022/11/12 02:19:12;;;;;;;;;;;;;;;;;;5054345;28;19920;-89
2022/11/12 02:21:37;;;;;;;;;;;;;;;;;;5035855;28;20478;-88
2022/11/12 02:24:26;;;;;;;;;;;;;;;;;;5054249;28;19917;-89
2022/11/12 02:26:53;;;;;;;;;;;;;;;;;;5035645;28;20015;-88
2022/11/12 02:29:18;;;;;;;;;;;;;;;;;;5053767;28;20403;-89
2022/11/12 02:31:43;;;;;;;;;;;;;;;;;;5035900;28;20011;-90
2022/11/12 02:34:10;;;;;;;;;;;;;;;;;;5054312;28;19920;-88
2022/11/12 02:36:36;;;;;;;;;;;;;;;;;;5036724;28;19917;-89
2022/11/12 02:39:01;;;;;;;;;;;;;;;;;;5036435;28;20368;-90
2022/11/12 02:41:27;;;;;;;;;;;;;;;;;;5054030;28;20020;-91
2022/11/12 02:43:52;;;;;;;;;;;;;;;;;;5054285;28;19917;-87
2022/11/12 02:46:18;;;;;;;;;;;;;;;;;;5044884;28;19913;-90
2022/11/12 02:48:43;;;;;;;;;;;;;;;;;;5043944;28;19921;-89
2022/11/12 02:51:09;;;;;;;;;;;;;;;;;;5033166;28;19905;-89
2022/11/12 02:53:34;;;;;;;;;;;;;;;;;;5045441;28;19935;-89
2022/11/12 02:56:00;;;;;;;;;;;;;;;;;;5043587;28;19921;-91
2022/11/12 02:58:25;;;;;;;;;;;;;;;;;;5042280;28;19917;-89
2022/11/12 03:00:51;;;;;;;;;;;;;;;;;;5041966;28;19917;-89
2022/11/12 03:03:16;;;;;;;;;;;;;;;;;;5037324;28;19921;-89
2022/11/12 03:05:42;;;;;;;;;;;;;;;;;;5034892;28;20321;-88
2022/11/12 03:08:08;;;;;;;;;;;;;;;;;;5018241;28;19927;-91
2022/11/12 03:10:36;;;;;;;;;;;;;;;;;;5018298;28;20377;-88
2022/11/12 03:13:01;;;;;;;;;;;;;;;;;;5037545;28;19921;-90
2022/11/12 03:15:27;;;;;;;;;;;;;;;;;;5040644;28;19916;-89
2022/11/12 03:17:53;;;;;;;;;;;;;;;;;;5042949;28;19917;-90
2022/11/12 03:20:18;;;;;;;;;;;;;;;;;;5025239;28;19921;-88
2022/11/12 03:22:53;;;;;;;;;;;;;;;;;;5020949;28;20344;-90
2022/11/12 03:25:19;;;;;;;;;;;;;;;;;;5034734;28;19967;-89
2022/11/12 03:27:44;;;;;;;;;;;;;;;;;;5031695;28;19921;-89
2022/11/12 03:30:10;;;;;;;;;;;;;;;;;;5037507;28;20368;-88
2022/11/12 03:32:35;;;;;;;;;;;;;;;;;;5039400;28;19925;-88
2022/11/12 03:35:00;;;;;;;;;;;;;;;;;;5042810;28;19916;-90
2022/11/12 03:37:26;;;;;;;;;;;;;;;;;;5019282;28;19960;-88
2022/11/12 03:39:51;;;;;;;;;;;;;;;;;;5036924;28;19917;-90
2022/11/12 03:42:17;;;;;;;;;;;;;;;;;;5038453;28;19925;-88
2022/11/12 03:44:42;;;;;;;;;;;;;;;;;;5036433;28;19927;-88
2022/11/12 03:47:07;;;;;;;;;;;;;;;;;;5039142;28;19932;-90
2022/11/12 03:49:33;;;;;;;;;;;;;;;;;;5020644;28;20376;-89
2022/11/12 03:51:58;;;;;;;;;;;;;;;;;;5018881;28;19922;-90
2022/11/12 03:54:24;;;;;;;;;;;;;;;;;;5039157;28;20012;-89
2022/11/12 03:56:49;;;;;;;;;;;;;;;;;;5019864;28;19936;-89
2022/11/12 03:59:14;;;;;;;;;;;;;;;;;;5032477;28;19983;-90
2022/11/12 04:01:40;;;;;;;;;;;;;;;;;;5038228;28;19924;-89
2022/11/12 04:04:05;;;;;;;;;;;;;;;;;;5031435;28;19917;-89
2022/11/12 04:09:14;;;;;;;;;;;;;;;;;;5037514;28;19973;-90
2022/11/12 04:11:40;;;;;;;;;;;;;;;;;;5035876;28;19953;-89
2022/11/12 04:14:05;;;;;;;;;;;;;;;;;;5036029;28;20015;-89
2022/11/12 04:22:04;;;;;;;;;;;;;;;;;;5030196;28;19928;-89
2022/11/12 04:27:22;;;;;;;;;;;;;;;;;;5032692;28;19974;-90
2022/11/12 04:32:32;;;;;;;;;;;;;;;;;;5033737;28;19932;-90
2022/11/12 04:34:58;;;;;;;;;;;;;;;;;;5032498;28;20797;-90
2022/11/12 04:37:25;;;;;;;;;;;;;;;;;;5035084;28;19917;-89
2022/11/12 04:39:51;;;;;;;;;;;;;;;;;;5034743;28;19917;-91
2022/11/12 04:45:02;;;;;;;;;;;;;;;;;;5033484;28;19927;-88
2022/11/12 04:47:31;;;;;;;;;;;;;;;;;;5037925;28;20314;-89
2022/11/12 04:49:57;;;;;;;;;;;;;;;;;;5017511;28;21532;-88
2022/11/12 04:52:23;;;;;;;;;;;;;;;;;;5033824;28;19924;-88
2022/11/12 04:54:48;;;;;;;;;;;;;;;;;;5034629;28;19920;-87
2022/11/12 04:57:13;;;;;;;;;;;;;;;;;;5035958;28;19917;-89
2022/11/12 04:59:39;;;;;;;;;;;;;;;;;;5031226;28;19913;-88
2022/11/12 05:02:04;;;;;;;;;;;;;;;;;;5031189;28;19916;-88
2022/11/12 05:04:30;;;;;;;;;;;;;;;;;;5018037;28;19932;-89
2022/11/12 05:06:56;;;;;;;;;;;;;;;;;;5017671;28;19963;-88
2022/11/12 05:09:25;;;;;;;;;;;;;;;;;;5033772;28;20383;-89
2022/11/12 05:11:51;;;;;;;;;;;;;;;;;;5033184;28;20447;-88
2022/11/12 05:14:16;;;;;;;;;;;;;;;;;;5035618;28;20008;-89
2022/11/12 05:16:42;;;;;;;;;;;;;;;;;;5049021;28;20392;-89
2022/11/12 05:19:07;;;;;;;;;;;;;;;;;;5033353;28;19925;-88
2022/11/12 05:24:17;;;;;;;;;;;;;;;;;;5032213;28;20426;-89
2022/11/12 05:26:42;;;;;;;;;;;;;;;;;;5031544;28;19921;-89
2022/11/12 05:29:08;;;;;;;;;;;;;;;;;;5032477;28;19990;-89
2022/11/12 05:31:33;;;;;;;;;;;;;;;;;;5017925;28;19957;-89
2022/11/12 05:33:59;;;;;;;;;;;;;;;;;;5035835;28;19917;-89
2022/11/12 05:36:24;;;;;;;;;;;;;;;;;;5035069;28;19921;-88
2022/11/12 05:38:50;;;;;;;;;;;;;;;;;;5037164;28;19968;-91
2022/11/12 05:41:15;;;;;;;;;;;;;;;;;;5034871;28;21582;-89
2022/11/12 05:43:41;;;;;;;;;;;;;;;;;;5021100;28;19925;-89
2022/11/12 05:46:06;;;;;;;;;;;;;;;;;;5036667;28;19917;-89
2022/11/12 05:48:32;;;;;;;;;;;;;;;;;;5022215;28;19983;-88
2022/11/12 05:50:59;;;;;;;;;;;;;;;;;;5038424;28;20023;-90
2022/11/12 05:53:24;;;;;;;;;;;;;;;;;;5018909;28;19921;-89
2022/11/12 05:55:49;;;;;;;;;;;;;;;;;;5038304;28;20418;-88
2022/11/12 05:58:15;;;;;;;;;;;;;;;;;;5039352;28;19921;-89
2022/11/12 06:00:40;;;;;;;;;;;;;;;;;;5038324;28;19921;-89
2022/11/12 06:03:10;;;;;;;;;;;;;;;;;;5038820;28;19921;-88
2022/11/12 06:05:35;;;;;;;;;;;;;;;;;;5021288;28;19913;-89
2022/11/12 06:08:02;;;;;;;;;;;;;;;;;;5038611;28;20434;-88
2022/11/12 06:10:28;;;;;;;;;;;;;;;;;;5021163;28;19925;-88
2022/11/12 06:12:54;;;;;;;;;;;;;;;;;;5036501;28;20391;-88
2022/11/12 06:15:19;;;;;;;;;;;;;;;;;;5037954;28;20292;-89
2022/11/12 06:17:45;;;;;;;;;;;;;;;;;;5039981;28;20380;-90
2022/11/12 06:20:11;;;;;;;;;;;;;;;;;;5036443;28;19927;-88
2022/11/12 06:22:36;;;;;;;;;;;;;;;;;;5039947;28;19931;-89
2022/11/12 06:25:02;;;;;;;;;;;;;;;;;;5044177;28;19975;-89
2022/11/12 06:27:27;;;;;;;;;;;;;;;;;;5037001;28;19932;-90
2022/11/12 06:29:53;;;;;;;;;;;;;;;;;;5020847;28;19921;-89
2022/11/12 06:32:18;;;;;;;;;;;;;;;;;;5040384;28;20044;-90
2022/11/12 06:34:44;;;;;;;;;;;;;;;;;;5038303;28;19931;-90
2022/11/12 06:37:09;;;;;;;;;;;;;;;;;;5037224;28;19921;-88
2022/11/12 06:39:34;;;;;;;;;;;;;;;;;;5044334;28;19917;-87
2022/11/12 06:42:00;;;;;;;;;;;;;;;;;;5038643;28;19925;-87
2022/11/12 06:44:26;;;;;;;;;;;;;;;;;;5046026;28;19924;-90
2022/11/12 06:46:51;;;;;;;;;;;;;;;;;;5030611;28;19921;-89
2022/11/12 06:49:17;;;;;;;;;;;;;;;;;;5032193;28;20381;-89
2022/11/12 06:51:43;;;;;;;;;;;;;;;;;;5030644;28;19940;-90
2022/11/12 06:54:08;;;;;;;;;;;;;;;;;;5049537;28;19928;-89
2022/11/12 06:56:33;;;;;;;;;;;;;;;;;;5046289;28;19921;-88
2022/11/12 06:58:59;;;;;;;;;;;;;;;;;;5045617;28;20412;-89
2022/11/12 07:01:24;;;;;;;;;;;;;;;;;;5059976;28;20371;-88
2022/11/12 07:03:51;;;;;;;;;;;;;;;;;;5046954;28;20023;-89
2022/11/12 07:06:19;;;;;;;;;;;;;;;;;;5075888;28;19920;-88
2022/11/12 07:08:48;;;;;;;;;;;;;;;;;;5050100;28;19917;-89
2022/11/12 07:11:14;;;;;;;;;;;;;;;;;;5090486;28;19923;-90
2022/11/12 07:13:39;;;;;;;;;;;;;;;;;;5078223;28;19921;-90
2022/11/12 07:16:06;;;;;;;;;;;;;;;;;;5080541;28;19932;-88
2022/11/12 07:18:32;;;;;;;;;;;;;;;;;;5068067;28;19920;-90
2022/11/12 07:21:01;;;;;;;;;;;;;;;;;;5064247;28;19923;-91
2022/11/12 07:23:28;;;;;;;;;;;;;;;;;;5058643;28;19928;-90
2022/11/12 07:26:04;;;;;;;;;;;;;;;;;;5057273;28;19913;-89
2022/11/12 07:28:29;;;;;;;;;;;;;;;;;;5039842;28;19921;-90
2022/11/12 07:30:59;;;;;;;;;;;;;;;;;;5056984;28;19932;-89
2022/11/12 07:33:25;;;;;;;;;;;;;;;;;;5057003;28;20314;-89
2022/11/12 07:35:58;;;;;;;;;;;;;;;;;;5070658;28;21248;-89
2022/11/12 07:38:23;;;;;;;;;;;;;;;;;;5058215;28;19966;-90
2022/11/12 07:40:49;;;;;;;;;;;;;;;;;;5058352;28;19924;-89
2022/11/12 07:43:14;;;;;;;;;;;;;;;;;;5057066;28;19971;-89
2022/11/12 07:45:40;;;;;;;;;;;;;;;;;;5056824;28;19928;-90
2022/11/12 07:48:06;;;;;;;;;;;;;;;;;;5058329;28;19916;-90
2022/11/12 07:50:31;;;;;;;;;;;;;;;;;;5072211;28;19923;-90
2022/11/12 07:52:58;;;;;;;;;;;;;;;;;;5057147;28;19928;-90
2022/11/12 07:55:23;;;;;;;;;;;;;;;;;;5055934;28;19928;-88
2022/11/12 07:57:48;;;;;;;;;;;;;;;;;;5060711;28;19916;-89
2022/11/12 08:00:14;;;;;;;;;;;;;;;;;;5075013;28;19921;-89
2022/11/12 08:02:40;;;;;;;;;;;;;;;;;;5055439;28;19973;-90
2022/11/12 08:05:05;;;;;;;;;;;;;;;;;;5057723;28;19921;-90
2022/11/12 08:07:31;;;;;;;;;;;;;;;;;;5060147;28;20058;-89
2022/11/12 08:09:57;;;;;;;;;;;;;;;;;;5054444;28;20625;-89
2022/11/12 08:12:23;;;;;;;;;;;;;;;;;;5041658;28;19948;-89
2022/11/12 08:14:48;;;;;;;;;;;;;;;;;;5073269;28;20368;-89
2022/11/12 08:17:14;;;;;;;;;;;;;;;;;;5038193;28;20534;-89
2022/11/12 08:19:40;;;;;;;;;;;;;;;;;;5061096;28;19917;-91
2022/11/12 08:22:05;;;;;;;;;;;;;;;;;;5056257;28;19923;-89
2022/11/12 08:24:31;;;;;;;;;;;;;;;;;;5061040;28;19920;-88
2022/11/12 08:26:56;;;;;;;;;;;;;;;;;;5078635;28;19916;-89
2022/11/12 08:29:22;;;;;;;;;;;;;;;;;;5061682;28;19920;-89
2022/11/12 08:31:47;;;;;;;;;;;;;;;;;;5072761;28;19966;-88
2022/11/12 08:34:13;;;;;;;;;;;;;;;;;;5060883;28;19913;-90
2022/11/12 08:36:41;;;;;;;;;;;;;;;;;;5057469;28;19917;-89
2022/11/12 08:39:07;;;;;;;;;;;;;;;;;;5058268;28;20287;-89
2022/11/12 08:41:32;;;;;;;;;;;;;;;;;;5058445;28;19925;-90
2022/11/12 08:43:58;;;;;;;;;;;;;;;;;;5061208;28;19978;-89
2022/11/12 08:46:24;;;;;;;;;;;;;;;;;;5075434;28;19963;-89
2022/11/12 08:48:50;;;;;;;;;;;;;;;;;;5037137;28;20338;-89
2022/11/12 08:51:15;;;;;;;;;;;;;;;;;;5071261;28;19924;-89
2022/11/12 08:53:41;;;;;;;;;;;;;;;;;;5077674;28;19943;-88
2022/11/12 08:56:27;;;;;;;;;;;;;;;;;;;;;
2022/11/12 08:58:53;;;;;;;;;;;;;;;;;;5072854;28;20036;-88
2022/11/12 09:01:18;;;;;;;;;;;;;;;;;;5062568;28;19936;-88
2022/11/12 09:03:44;;;;;;;;;;;;;;;;;;5053125;28;20354;-89
2022/11/12 09:06:09;;;;;;;;;;;;;;;;;;5050893;28;19920;-90
2022/11/12 09:08:35;;;;;;;;;;;;;;;;;;5051325;28;19924;-87
2022/11/12 09:11:01;;;;;;;;;;;;;;;;;;5051175;28;20288;-90
2022/11/12 09:13:26;;;;;;;;;;;;;;;;;;5052549;28;19916;-89
2022/11/12 09:15:52;;;;;;;;;;;;;;;;;;5028162;28;20372;-90
2022/11/12 09:18:17;;;;;;;;;;;;;;;;;;5055137;28;19925;-88
2022/11/12 09:20:43;;;;;;;;;;;;;;;;;;5064010;28;19931;-89
2022/11/12 09:23:13;;;;;;;;;;;;;;;;;;5029596;28;19921;-88
2022/11/12 09:25:39;;;;;;;;;;;;;;;;;;5046183;28;20442;-87
2022/11/12 09:28:12;;;;;;;;;;;;;;;;;;5045560;28;19916;-89
2022/11/12 09:30:41;;;;;;;;;;;;;;;;;;5047349;28;20327;-87
2022/11/12 09:33:07;;;;;;;;;;;;;;;;;;5047079;28;19995;-88
2022/11/12 09:35:32;;;;;;;;;;;;;;;;;;5046868;28;20008;-88
2022/11/12 09:38:00;;;;;;;;;;;;;;;;;;5062787;28;19925;-89
2022/11/12 09:40:33;;;;;;;;;;;;;;;;;;5029291;28;19920;-88
2022/11/12 09:42:58;;;;;;;;;;;;;;;;;;5047085;28;20292;-90
2022/11/12 09:45:29;;;;;;;;;;;;;;;;;;5046904;28;19927;-88
2022/11/12 09:48:01;;;;;;;;;;;;;;;;;;5047806;28;19921;-89
2022/11/12 09:50:32;;;;;;;;;;;;;;;;;;5029857;28;19970;-88
2022/11/12 09:53:20;;;;;;;;;;;;;;;;;;5043285;28;19929;-87
2022/11/12 09:55:48;;;;;;;;;;;;;;;;;;5042027;28;19948;-87
2022/11/12 09:58:14;;;;;;;;;;;;;;;;;;5032031;28;20050;-87
2022/11/12 10:00:41;;;;;;;;;;;;;;;;;;5032273;28;20016;-87
2022/11/12 10:03:21;;;;;;;;;;;;;;;;;;5045485;28;20328;-88
2022/11/12 10:05:50;;;;;;;;;;;;;;;;;;5063001;28;19913;-86
2022/11/12 10:08:34;;;;;;;;;;;;;;;;;;5036614;28;19921;-87
2022/11/12 10:11:15;;;;;;;;;;;;;;;;;;5053906;28;20383;-85
2022/11/12 10:13:52;;;;;;;;;;;;;;;;;;5053751;28;19921;-88
2022/11/12 10:16:43;;;;;;;;;;;;;;;;;;5068517;28;19924;-85
2022/11/12 10:19:27;;;;;;;;;;;;;;;;;;5060369;28;19924;-86
2022/11/12 10:22:07;;;;;;;;;;;;;;;;;;5055597;28;19920;-86
2022/11/12 10:24:34;;;;;;;;;;;;;;;;;;5038531;28;19987;-87
2022/11/12 10:26:59;;;;;;;;;;;;;;;;;;5031159;28;20019;-86
2022/11/12 10:29:31;;;;;;;;;;;;;;;;;;5054354;28;20009;-86
2022/11/12 10:31:56;;;;;;;;;;;;;;;;;;5050466;28;20350;-85
2022/11/12 10:34:22;;;;;;;;;;;;;;;;;;5050658;28;19921;-84
2022/11/12 10:36:50;;;;;;;;;;;;;;;;;;5030433;28;19951;-86
2022/11/12 10:39:42;;;;;;;;;;;;;;;;;;5039888;28;19925;-86
2022/11/12 10:42:13;;;;;;;;;;;;;;;;;;5038146;28;20288;-86
2022/11/12 10:44:38;;;;;;;;;;;;;;;;;;5050636;28;19931;-86
2022/11/12 10:47:30;;;;;;;;;;;;;;;;;;5051361;28;19917;-85
2022/11/12 10:50:01;;;;;;;;;;;;;;;;;;5044047;28;20519;-87
2022/11/12 10:52:27;;;;;;;;;;;;;;;;;;5050120;28;19921;-87
2022/11/12 10:55:04;;;;;;;;;;;;;;;;;;5050726;28;19925;-87
2022/11/12 10:57:29;;;;;;;;;;;;;;;;;;5031050;28;19928;-87
2022/11/12 11:00:13;;;;;;;;;;;;;;;;;;5029742;28;20273;-87
2022/11/12 11:02:50;;;;;;;;;;;;;;;;;;5042267;28;19917;-87
2022/11/12 11:05:24;;;;;;;;;;;;;;;;;;5036422;28;19993;-87
2022/11/12 11:07:50;;;;;;;;;;;;;;;;;;5051589;28;19923;-87
2022/11/12 11:10:35;;;;;;;;;;;;;;;;;;5088298;28;19924;-87
2022/11/12 11:13:29;;;;;;;;;;;;;;;;;;5070926;28;20279;-87
2022/11/12 11:16:02;;;;;;;;;;;;;;;;;;5040040;28;19947;-87
2022/11/12 11:18:32;;;;;;;;;;;;;;;;;;5050584;28;19928;-87
2022/11/12 11:21:04;;;;;;;;;;;;;;;;;;5031419;28;20078;-87
2022/11/12 11:23:35;;;;;;;;;;;;;;;;;;5063943;28;19960;-86
2022/11/12 11:26:06;;;;;;;;;;;;;;;;;;5059614;28;20230;-86
2022/11/12 11:29:01;;;;;;;;;;;;;;;;;;5061318;28;20017;-87
2022/11/12 11:31:35;;;;;;;;;;;;;;;;;;5030540;28;20423;-87
2022/11/12 11:34:00;;;;;;;;;;;;;;;;;;5049921;28;20216;-88
2022/11/12 11:36:29;;;;;;;;;;;;;;;;;;5027490;28;19928;-84
2022/11/12 11:38:57;;;;;;;;;;;;;;;;;;5029818;28;19928;-84
2022/11/12 11:41:37;;;;;;;;;;;;;;;;;;5028772;28;19917;-87
2022/11/12 11:44:13;;;;;;;;;;;;;;;;;;5029515;28;19921;-87
2022/11/12 11:46:39;;;;;;;;;;;;;;;;;;5046021;28;19923;-85
2022/11/12 11:49:10;;;;;;;;;;;;;;;;;;5063082;28;19921;-87
2022/11/12 11:51:56;;;;;;;;;;;;;;;;;;5030318;28;20495;-86
2022/11/12 11:54:40;;;;;;;;;;;;;;;;;;5029512;28;20404;-87
2022/11/12 11:57:10;;;;;;;;;;;;;;;;;;5063441;28;19964;-86
2022/11/12 11:59:41;;;;;;;;;;;;;;;;;;5046787;28;19921;-86
2022/11/12 12:02:18;;;;;;;;;;;;;;;;;;5046184;28;19921;-86
2022/11/12 12:04:48;;;;;;;;;;;;;;;;;;5047079;28;19921;-87
2022/11/12 12:07:16;;;;;;;;;;;;;;;;;;5042676;28;19921;-86
2022/11/12 12:09:50;;;;;;;;;;;;;;;;;;5029115;28;20012;-87
2022/11/12 12:12:20;;;;;;;;;;;;;;;;;;5029099;28;19951;-86
2022/11/12 12:15:01;;;;;;;;;;;;;;;;;;5028611;28;19925;-87
2022/11/12 12:17:44;;;;;;;;;;;;;;;;;;5028644;28;20078;-86
2022/11/12 12:20:20;;;;;;;;;;;;;;;;;;5028473;28;19971;-85
2022/11/12 12:22:45;;;;;;;;;;;;;;;;;;5061162;28;20043;-86
2022/11/12 12:25:20;;;;;;;;;;;;;;;;;;5028833;28;20024;-85
2022/11/12 12:28:12;;;;;;;;;;;;;;;;;;5028897;28;19967;-85
2022/11/12 12:30:44;;;;;;;;;;;;;;;;;;5040684;28;19949;-88
2022/11/12 12:33:16;;;;;;;;;;;;;;;;;;5027665;28;19921;-87
2022/11/12 12:36:11;;;;;;;;;;;;;;;;;;5027302;28;19921;-88
2022/11/12 12:38:47;;;;;;;;;;;;;;;;;;5025780;28;19921;-87
2022/11/12 12:41:26;;;;;;;;;;;;;;;;;;5028942;28;20015;-87
2022/11/12 12:43:54;;;;;;;;;;;;;;;;;;5029373;28;20011;-86
2022/11/12 12:46:21;;;;;;;;;;;;;;;;;;5048843;28;19920;-86
2022/11/12 12:48:48;;;;;;;;;;;;;;;;;;5048411;28;20426;-87
2022/11/12 12:51:13;;;;;;;;;;;;;;;;;;5048148;28;19967;-88
2022/11/12 12:53:39;;;;;;;;;;;;;;;;;;5048192;28;19924;-87
2022/11/12 12:56:14;;;;;;;;;;;;;;;;;;5030686;28;20395;-86
2022/11/12 12:58:39;;;;;;;;;;;;;;;;;;5048415;28;20481;-86
2022/11/12 13:01:20;;;;;;;;;;;;;;;;;;5048223;28;19925;-86
2022/11/12 13:03:49;;;;;;;;;;;;;;;;;;5048210;28;19920;-89
2022/11/12 13:06:20;;;;;;;;;;;;;;;;;;5047965;28;19921;-87
2022/11/12 13:08:46;;;;;;;;;;;;;;;;;;5048425;28;19920;-86
2022/11/12 13:12:20;;;;;;;;;;;;;;;;;;5048035;28;19921;-86
2022/11/12 13:14:40;;;;;;;;;;;;;;;;;;5047567;28;19924;-87
2022/11/12 13:17:06;;;;;;;;;;;;;;;;;;5028498;28;20021;-86
2022/11/12 13:19:32;;;;;;;;;;;;;;;;;;5046937;28;19962;-87
2022/11/12 13:22:16;;;;;;;;;;;;;;;;;;5046815;28;20295;-85
2022/11/12 13:25:00;;;;;;;;;;;;;;;;;;5047794;28;19924;-86
2022/11/12 13:27:38;;;;;;;;;;;;;;;;;;5030191;28;19921;-85
2022/11/12 13:30:13;;;;;;;;;;;;;;;;;;5048165;28;20015;-85
2022/11/12 13:32:41;;;;;;;;;;;;;;;;;;5046569;28;19999;-86
2022/11/12 13:35:22;;;;;;;;;;;;;;;;;;5046034;28;19920;-85
2022/11/12 13:37:47;;;;;;;;;;;;;;;;;;5048414;28;19936;-85
2022/11/12 13:40:33;;;;;;;;;;;;;;;;;;5049037;28;20003;-84
2022/11/12 13:43:05;;;;;;;;;;;;;;;;;;5025679;28;19917;-86
2022/11/12 13:45:31;;;;;;;;;;;;;;;;;;5030237;28;20007;-86
2022/11/12 13:47:57;;;;;;;;;;;;;;;;;;5034091;28;19921;-85
2022/11/12 13:50:23;;;;;;;;;;;;;;;;;;5029153;28;20436;-89
2022/11/12 13:52:49;;;;;;;;;;;;;;;;;;5031921;28;20384;-89
2022/11/12 13:55:16;;;;;;;;;;;;;;;;;;5047257;28;19927;-87
2022/11/12 13:57:47;;;;;;;;;;;;;;;;;;5030322;28;20023;-88
2022/11/12 14:00:15;;;;;;;;;;;;;;;;;;5030553;28;20463;-88
2022/11/12 14:02:42;;;;;;;;;;;;;;;;;;5031966;28;19921;-87
2022/11/12 14:05:15;;;;;;;;;;;;;;;;;;5030098;28;19921;-88
2022/11/12 14:07:40;;;;;;;;;;;;;;;;;;5033123;28;20348;-85
2022/11/12 14:10:06;;;;;;;;;;;;;;;;;;5013281;28;19964;-88
2022/11/12 14:12:40;;;;;;;;;;;;;;;;;;5031930;28;19921;-88
2022/11/12 14:15:22;;;;;;;;;;;;;;;;;;5013356;28;20274;-86
2022/11/12 14:17:57;;;;;;;;;;;;;;;;;;5031283;28;19921;-88
2022/11/12 14:20:24;;;;;;;;;;;;;;;;;;5031357;28;20395;-87
2022/11/12 14:22:50;;;;;;;;;;;;;;;;;;5031532;28;19917;-86
2022/11/12 14:25:20;;;;;;;;;;;;;;;;;;5034403;28;19928;-86
2022/11/12 14:27:49;;;;;;;;;;;;;;;;;;5039643;28;20667;-89
2022/11/12 14:30:16;;;;;;;;;;;;;;;;;;5013501;28;20678;-87
2022/11/12 14:32:43;;;;;;;;;;;;;;;;;;5013929;28;19921;-86
2022/11/12 14:35:23;;;;;;;;;;;;;;;;;;5030853;28;19922;-90
2022/11/12 14:38:12;;;;;;;;;;;;;;;;;;5031660;28;20447;-84
2022/11/12 14:40:54;;;;;;;;;;;;;;;;;;5019919;28;19943;-87
2022/11/12 14:43:22;;;;;;;;;;;;;;;;;;5013190;28;20416;-88
2022/11/12 14:45:52;;;;;;;;;;;;;;;;;;5047512;28;20367;-88
2022/11/12 14:48:17;;;;;;;;;;;;;;;;;;5049448;28;19924;-86
2022/11/12 14:50:45;;;;;;;;;;;;;;;;;;5050731;28;20012;-84
2022/11/12 14:53:14;;;;;;;;;;;;;;;;;;5049021;28;20311;-85
2022/11/12 14:55:42;;;;;;;;;;;;;;;;;;5032363;28;20578;-85
2022/11/12 14:58:13;;;;;;;;;;;;;;;;;;5049510;28;19921;-85
2022/11/12 15:00:40;;;;;;;;;;;;;;;;;;5049967;28;19967;-84
2022/11/12 15:03:05;;;;;;;;;;;;;;;;;;5053470;28;19924;-86
2022/11/12 15:05:31;;;;;;;;;;;;;;;;;;5050280;28;19990;-86
2022/11/12 15:07:58;;;;;;;;;;;;;;;;;;5052156;28;20023;-84
2022/11/12 15:10:43;;;;;;;;;;;;;;;;;;5053152;28;19928;-85
2022/11/12 15:13:14;;;;;;;;;;;;;;;;;;5035483;28;20355;-84
2022/11/12 15:15:49;;;;;;;;;;;;;;;;;;5051776;28;19966;-85
2022/11/12 15:18:17;;;;;;;;;;;;;;;;;;5034160;28;19921;-87
2022/11/12 15:20:43;;;;;;;;;;;;;;;;;;5051968;28;20327;-86
2022/11/12 15:23:16;;;;;;;;;;;;;;;;;;5051492;28;19951;-86
2022/11/12 15:25:42;;;;;;;;;;;;;;;;;;5055033;28;19921;-85
2022/11/12 15:28:21;;;;;;;;;;;;;;;;;;5058803;28;19936;-85
2022/11/12 15:31:00;;;;;;;;;;;;;;;;;;5062485;28;19931;-86
2022/11/12 15:33:25;;;;;;;;;;;;;;;;;;5063904;28;19925;-86
2022/11/12 15:35:54;;;;;;;;;;;;;;;;;;5068601;28;19932;-87
2022/11/12 15:38:25;;;;;;;;;;;;;;;;;;5050260;28;19956;-85
2022/11/12 15:40:55;;;;;;;;;;;;;;;;;;5052056;28;19927;-85
2022/11/12 15:43:22;;;;;;;;;;;;;;;;;;5056311;28;19920;-86
2022/11/12 15:45:49;;;;;;;;;;;;;;;;;;5054632;28;20306;-87
2022/11/12 15:48:14;;;;;;;;;;;;;;;;;;5048631;28;19925;-88
2022/11/12 15:50:39;;;;;;;;;;;;;;;;;;5051167;28;19974;-84
2022/11/12 15:53:08;;;;;;;;;;;;;;;;;;5053613;28;19933;-85
2022/11/12 15:55:40;;;;;;;;;;;;;;;;;;5033129;28;19921;-86
2022/11/12 15:58:06;;;;;;;;;;;;;;;;;;5049903;28;19917;-85
2022/11/12 16:00:38;;;;;;;;;;;;;;;;;;5032151;28;19990;-86
2022/11/12 16:03:14;;;;;;;;;;;;;;;;;;5037318;28;19921;-86
2022/11/12 16:05:40;;;;;;;;;;;;;;;;;;5050629;28;19916;-83
2022/11/12 16:08:05;;;;;;;;;;;;;;;;;;5050802;28;19921;-85
2022/11/12 16:10:30;;;;;;;;;;;;;;;;;;5040703;28;20322;-85
2022/11/12 16:12:57;;;;;;;;;;;;;;;;;;5032213;28;20017;-86
2022/11/12 16:15:24;;;;;;;;;;;;;;;;;;5036863;28;19925;-86
2022/11/12 16:17:50;;;;;;;;;;;;;;;;;;5037344;28;19936;-84
2022/11/12 16:20:20;;;;;;;;;;;;;;;;;;5019638;28;20525;-86
2022/11/12 16:22:45;;;;;;;;;;;;;;;;;;5044568;28;20346;-88
2022/11/12 16:25:11;;;;;;;;;;;;;;;;;;5053442;28;19925;-83
2022/11/12 16:30:14;;;;;;;;;;;;;;;;;;5258535;22;19955;-86
2022/11/12 16:32:40;;;;;;;;;;;;;;;;;;5032379;28;19956;-85
2022/11/12 16:35:05;;;;;;;;;;;;;;;;;;5051667;28;19978;-84
2022/11/12 16:37:31;;;;;;;;;;;;;;;;;;5044628;28;19956;-84
2022/11/12 16:39:56;;;;;;;;;;;;;;;;;;5050838;28;20387;-86
2022/11/12 16:42:22;;;;;;;;;;;;;;;;;;5042472;28;19956;-86
2022/11/12 16:44:47;;;;;;;;;;;;;;;;;;5026547;28;19994;-85
2022/11/12 16:47:13;;;;;;;;;;;;;;;;;;5046940;28;20277;-85
2022/11/12 16:49:39;;;;;;;;;;;;;;;;;;5052955;28;20034;-85
2022/11/12 16:52:04;;;;;;;;;;;;;;;;;;5061207;28;20248;-84
2022/11/12 16:54:30;;;;;;;;;;;;;;;;;;5048833;28;20360;-85
2022/11/12 16:56:55;;;;;;;;;;;;;;;;;;5048547;28;20055;-85
2022/11/12 16:59:21;;;;;;;;;;;;;;;;;;5049095;28;19921;-83
2022/11/12 17:01:46;;;;;;;;;;;;;;;;;;5033016;28;19928;-85
2022/11/12 17:04:12;;;;;;;;;;;;;;;;;;5052276;28;19925;-84
2022/11/12 17:06:38;;;;;;;;;;;;;;;;;;5049193;28;20062;-84
2022/11/12 17:09:05;;;;;;;;;;;;;;;;;;5048892;28;19940;-84
2022/11/12 17:11:30;;;;;;;;;;;;;;;;;;5049108;28;20344;-84
2022/11/12 17:13:56;;;;;;;;;;;;;;;;;;5030058;28;20019;-84
2022/11/12 17:16:21;;;;;;;;;;;;;;;;;;5048833;28;19931;-83
2022/11/12 17:18:47;;;;;;;;;;;;;;;;;;5046428;28;19921;-85